Minerva Virgo — SXXT — position and weather

sailwx.info

Track history (hours):
 
Tides and Currents Weather Stations Pressure Air Temp Water Temp Dewpoint Dewpoint Depression Visibility Wind Speed Wind Dir Waves Ship Positions

Minerva Virgo

Last reported at 2018-Apr-19 20:39 UTC. Time now 2018-Apr-21 02:08 UTC.
Position N 36°41' E 013°24'.

Length 182 m; draft 12 m.

Type: Ship (hazmat cat C). MMSI: 240730000.

Date/timePositionNaut miles runAvg speedWind from/ knotsBaromVisibWave heightAir tempDewpointWater temp
2018-Apr-19 20:39N 36°41' E 013°24'314.1
2018-Apr-19 20:26N 36°40' E 013°27'917.3
2018-Apr-19 19:56N 36°37' E 013°38'4 9.6
2018-Apr-19 19:29N 36°34' E 013°42'612.9
2018-Apr-19 19:00N 36°31' E 013°49'1313.5
2018-Apr-19 18:01N 36°27' E 014°04'224.4
2018-Apr-19 17:57N 36°26' E 014°06'612.2
2018-Apr-19 17:30N 36°24' E 014°13'714.0
2018-Apr-19 16:59N 36°21' E 014°21'713.7
2018-Apr-19 16:30N 36°19' E 014°29'613.0
2018-Apr-19 16:00N 36°18' E 014°36'1113.4
2018-Apr-19 15:10N 36°14' E 014°49'  
2018-Apr-16 20:14N 31°50' E 031°49'312.8
2018-Apr-16 19:59N 31°49' E 031°53'713.9
2018-Apr-16 19:30N 31°45' E 031°59'812.2
2018-Apr-16 18:49N 31°39' E 032°06'513.0
2018-Apr-16 18:26N 31°36' E 032°10'613.0
2018-Apr-16 18:00N 31°32' E 032°15'612.9
2018-Apr-16 17:30N 31°28' E 032°21'5 9.5
2018-Apr-16 16:58N 31°24' E 032°23'511.1
2018-Apr-16 16:30N 31°19' E 032°22'5 9.2
2018-Apr-16 16:00N 31°14' E 032°21'3 5.9
2018-Apr-16 15:26N 31°11' E 032°20'  
Track history (hours):
 
Tides and Currents Weather Stations Pressure Air Temp Water Temp Dewpoint Dewpoint Depression Visibility Wind Speed Wind Dir Waves Ship Positions

Minerva Virgo

Last reported at 2018-Apr-19 20:39 UTC. Time now 2018-Apr-21 02:08 UTC.
Position N 36°41' E 013°24'.

Length 182 m; draft 12 m.

Type: Ship (hazmat cat C). MMSI: 240730000.

Date/timePositionNaut miles runAvg speedWind from/ knotsBaromVisibWave heightAir tempDewpointWater temp
2018-Apr-19 20:39N 36°41' E 013°24'314.1
2018-Apr-19 20:26N 36°40' E 013°27'917.3
2018-Apr-19 19:56N 36°37' E 013°38'4 9.6
2018-Apr-19 19:29N 36°34' E 013°42'612.9
2018-Apr-19 19:00N 36°31' E 013°49'1313.5
2018-Apr-19 18:01N 36°27' E 014°04'224.4
2018-Apr-19 17:57N 36°26' E 014°06'612.2
2018-Apr-19 17:30N 36°24' E 014°13'714.0
2018-Apr-19 16:59N 36°21' E 014°21'713.7
2018-Apr-19 16:30N 36°19' E 014°29'613.0
2018-Apr-19 16:00N 36°18' E 014°36'1113.4
2018-Apr-19 15:10N 36°14' E 014°49'  
2018-Apr-16 20:14N 31°50' E 031°49'312.8
2018-Apr-16 19:59N 31°49' E 031°53'713.9
2018-Apr-16 19:30N 31°45' E 031°59'812.2
2018-Apr-16 18:49N 31°39' E 032°06'513.0
2018-Apr-16 18:26N 31°36' E 032°10'613.0
2018-Apr-16 18:00N 31°32' E 032°15'612.9
2018-Apr-16 17:30N 31°28' E 032°21'5 9.5
2018-Apr-16 16:58N 31°24' E 032°23'511.1
2018-Apr-16 16:30N 31°19' E 032°22'5 9.2
2018-Apr-16 16:00N 31°14' E 032°21'3 5.9
2018-Apr-16 15:26N 31°11' E 032°20'  

Dump ship's entire track history